Time;durP1;ratioP1;P1;durP2;ratioP2;P2;SDS_P1;SDS_P2;PMS_P1;PMS_P2;Temp;Humidity;BMP_temperature;BMP_pressure;BME280_temperature;BME280_humidity;BME280_pressure;Samples;Min_cycle;Max_cycle;Signal;HPM_P1;HPM_P2
2022/12/26 00:00:10;;;;;;;13.25;6.40;;;;;;;1.29;91.15;101307.63;1756079;81;21015;-67
2022/12/26 00:02:40;;;;;;;11.43;6.25;;;;;;;1.32;91.15;101307.43;1756235;82;21003;-66
2022/12/26 00:05:10;;;;;;;11.45;6.30;;;;;;;1.34;90.94;101296.52;1756123;82;21467;-67
2022/12/26 00:07:44;;;;;;;11.78;6.42;;;;;;;1.31;90.80;101299.45;1756033;82;21007;-68
2022/12/26 00:10:13;;;;;;;12.93;7.15;;;;;;;1.29;90.93;101294.13;1756070;81;21014;-67
2022/12/26 00:12:42;;;;;;;12.03;7.10;;;;;;;1.32;90.94;101293.07;1755998;82;21472;-67
2022/12/26 00:15:11;;;;;;;10.80;6.53;;;;;;;1.32;90.91;101291.23;1756239;81;21058;-66
2022/12/26 00:17:40;;;;;;;11.48;5.90;;;;;;;1.32;90.81;101291.72;1756072;81;21035;-65
2022/12/26 00:20:10;;;;;;;9.28;5.67;;;;;;;1.31;90.67;101295.40;1756076;82;21472;-68
2022/12/26 00:22:39;;;;;;;12.58;6.22;;;;;;;1.25;90.52;101295.34;1756101;82;21474;-69
2022/12/26 00:25:09;;;;;;;12.93;5.97;;;;;;;1.22;90.67;101292.88;1756385;82;21039;-66
2022/12/26 00:27:38;;;;;;;13.32;6.30;;;;;;;1.23;90.71;101295.95;1756192;82;21054;-68
2022/12/26 00:30:09;;;;;;;11.18;6.00;;;;;;;1.22;90.58;101299.13;1756006;82;20975;-66
2022/12/26 00:32:37;;;;;;;10.28;5.83;;;;;;;1.20;90.45;101301.58;1756037;82;21022;-66
2022/12/26 00:35:07;;;;;;;9.45;5.60;;;;;;;1.18;90.26;101304.87;1755957;81;21043;-66
2022/12/26 00:37:35;;;;;;;11.08;5.97;;;;;;;1.13;90.17;101301.66;1756093;82;20995;-66
2022/12/26 00:40:06;;;;;;;9.70;5.47;;;;;;;1.12;90.22;101293.20;1756310;82;21054;-67
2022/12/26 00:42:35;;;;;;;9.75;5.40;;;;;;;1.12;90.25;101302.64;1753146;82;21079;-66
2022/12/26 00:45:07;;;;;;;10.95;5.92;;;;;;;1.13;90.33;101300.31;1740271;82;21032;-67
2022/12/26 00:47:35;;;;;;;9.98;5.90;;;;;;;1.14;90.30;101300.69;1740207;82;21083;-67
2022/12/26 00:50:05;;;;;;;8.95;5.25;;;;;;;1.15;90.18;101305.97;1740124;82;20976;-68
2022/12/26 00:52:35;;;;;;;10.18;5.80;;;;;;;1.16;90.09;101306.83;1740310;82;21467;-67
2022/12/26 00:55:06;;;;;;;8.95;5.28;;;;;;;1.12;89.89;101305.34;1740346;82;21541;-66
2022/12/26 00:57:34;;;;;;;9.30;5.47;;;;;;;1.09;89.97;101315.88;1740318;81;21027;-68
2022/12/26 01:00:05;;;;;;;9.35;5.40;;;;;;;1.10;89.99;101316.25;1740199;82;21059;-67
2022/12/26 01:02:36;;;;;;;10.72;5.55;;;;;;;1.09;89.84;101308.27;1740159;82;21016;-67
2022/12/26 01:05:09;;;;;;;9.23;5.28;;;;;;;1.08;89.87;101304.70;1740302;82;21039;-67
2022/12/26 01:07:39;;;;;;;8.58;4.83;;;;;;;1.03;89.68;101304.68;1743657;82;21028;-68
2022/12/26 01:10:11;;;;;;;8.20;4.42;;;;;;;1.01;89.77;101310.68;1740758;82;21474;-67
2022/12/26 01:12:40;;;;;;;7.92;4.58;;;;;;;0.97;89.70;101311.39;1740300;82;21051;-66
2022/12/26 01:15:09;;;;;;;8.75;4.67;;;;;;;0.91;89.61;101309.16;1740213;82;21011;-66
2022/12/26 01:17:38;;;;;;;7.78;4.40;;;;;;;0.85;89.57;101310.47;1740074;81;21068;-67
2022/12/26 01:20:10;;;;;;;7.67;4.78;;;;;;;0.83;89.68;101308.37;1740314;82;21036;-65
2022/12/26 01:22:38;;;;;;;7.50;4.50;;;;;;;0.85;89.84;101315.00;1740161;81;21027;-68
2022/12/26 01:25:10;;;;;;;7.42;4.28;;;;;;;0.85;89.83;101312.30;1740096;82;21067;-67
2022/12/26 01:27:39;;;;;;;7.65;4.80;;;;;;;0.85;89.96;101318.55;1696193;82;20999;-68
2022/12/26 01:30:09;;;;;;;7.20;4.35;;;;;;;0.86;89.98;101308.14;1740344;82;21058;-67
2022/12/26 01:32:38;;;;;;;7.75;4.83;;;;;;;0.90;90.10;101315.03;1740354;82;21017;-67
2022/12/26 01:35:08;;;;;;;6.70;4.40;;;;;;;0.91;89.94;101307.80;1740324;82;21455;-67
2022/12/26 01:37:37;;;;;;;8.93;4.85;;;;;;;0.90;89.88;101305.59;1740416;82;21051;-67
2022/12/26 01:40:07;;;;;;;8.08;4.87;;;;;;;0.91;89.83;101307.31;1740369;82;20991;-67
2022/12/26 01:42:38;;;;;;;9.53;5.55;;;;;;;0.91;89.89;101305.97;1740452;81;21074;-68
2022/12/26 01:45:25;;;;;;;7.60;4.20;;;;;;;0.92;89.89;101307.69;1745616;82;21052;-67
2022/12/26 01:48:09;;;;;;;7.53;4.45;;;;;;;0.94;89.96;101307.09;1745845;82;21019;-67
2022/12/26 01:51:01;;;;;;;8.05;4.78;;;;;;;0.93;89.87;101308.55;1745938;82;21043;-65
2022/12/26 01:53:44;;;;;;;6.33;3.80;;;;;;;0.95;89.89;101306.59;1745851;82;21055;-68
2022/12/26 01:56:18;;;;;;;6.70;4.03;;;;;;;0.92;89.69;101310.39;1745673;82;21451;-67
2022/12/26 01:58:52;;;;;;;7.30;4.00;;;;;;;0.89;89.68;101305.22;1745542;82;21561;-67
2022/12/26 02:01:21;;;;;;;7.65;4.72;;;;;;;0.89;89.68;101307.91;1745620;82;21075;-68
2022/12/26 02:06:40;;;;;;;7.62;4.40;;;;;;;0.85;89.67;101305.07;1745822;82;20999;-66
2022/12/26 02:09:09;;;;;;;8.93;4.95;;;;;;;0.85;89.75;101303.72;1745812;82;21438;-66
2022/12/26 02:11:44;;;;;;;10.82;5.25;;;;;;;0.87;89.73;101302.26;1745987;82;21023;-67
2022/12/26 02:14:13;;;;;;;10.20;5.72;;;;;;;0.90;89.75;101308.78;1746033;82;21066;-68
2022/12/26 02:16:42;;;;;;;11.00;5.33;;;;;;;0.89;89.74;101307.91;1745930;82;21023;-67
2022/12/26 02:19:25;;;;;;;8.28;5.10;;;;;;;0.88;89.92;101305.33;1745684;82;21479;-69
2022/12/26 02:22:40;;;;;;;6.92;4.40;;;;;;;0.87;89.92;101309.00;1745884;82;21023;-69
2022/12/26 02:25:41;;;;;;;8.28;4.85;;;;;;;0.81;89.82;101306.76;1745674;82;21422;-67
2022/12/26 02:28:27;;;;;;;8.40;4.87;;;;;;;0.79;90.01;101306.88;1745803;82;21075;-68
2022/12/26 02:31:19;;;;;;;8.53;4.55;;;;;;;0.81;90.04;101306.27;1745983;82;21114;-68
2022/12/26 02:33:59;;;;;;;7.47;4.78;;;;;;;0.77;89.93;101304.77;1745676;82;21455;-68
2022/12/26 02:36:56;;;;;;;7.58;4.72;;;;;;;0.75;90.12;101308.56;1745745;82;21050;-68
2022/12/26 02:39:56;;;;;;;8.00;4.78;;;;;;;0.75;90.17;101302.67;1745953;82;21038;-67
2022/12/26 02:42:51;;;;;;;8.45;4.90;;;;;;;0.77;90.14;101300.73;1745919;82;21510;-67
2022/12/26 02:48:56;;;;;;;9.33;5.22;;;;;;;0.83;90.16;101296.72;1767318;81;21089;-66
2022/12/26 03:17:18;;;;;;;7.50;4.80;;;;;;;0.74;89.37;101292.86;1767179;81;21634;-67
2022/12/26 03:18:05;;;;;;;7.22;4.50;;;;;;;0.74;89.45;101291.52;1736796;81;21031;-67
2022/12/26 03:20:35;;;;;;;10.68;4.90;;;;;;;0.74;89.32;101287.47;1767026;81;21070;-65
2022/12/26 03:23:10;;;;;;;7.50;4.37;;;;;;;0.74;89.25;101293.34;1767085;81;21057;-67
2022/12/26 03:28:30;;;;;;;8.55;5.00;;;;;;;0.76;89.13;101284.66;1767224;81;21105;-67
2022/12/26 03:31:01;;;;;;;9.55;5.15;;;;;;;0.80;89.20;101286.16;1767127;81;21433;-67
2022/12/26 03:36:41;;;;;;;9.38;5.22;;;;;;;0.83;89.05;101298.06;1767419;81;21462;-68
2022/12/26 04:19:25;;;;;;;9.78;5.58;;;;;;;0.69;88.42;101313.91;1767367;81;21051;-67
2022/12/26 04:45:21;;;;;;;8.33;5.12;;;;;;;0.62;88.72;101330.13;1758869;81;21108;-66
2022/12/26 04:50:50;;;;;;;12.73;4.97;;;;;;;0.69;88.86;101325.19;1756248;82;21427;-68
2022/12/26 04:53:19;;;;;;;7.10;4.50;;;;;;;0.73;88.90;101331.59;1756253;82;21078;-67
2022/12/26 04:55:48;;;;;;;9.25;4.40;;;;;;;0.76;88.70;101337.25;1755963;82;20986;-66
2022/12/26 04:58:17;;;;;;;11.38;4.92;;;;;;;0.78;88.52;101340.70;1755935;82;21038;-68
2022/12/26 05:00:46;;;;;;;13.45;5.60;;;;;;;0.75;88.23;101342.27;1756002;82;21050;-68
2022/12/26 05:11:36;;;;;;;13.38;5.20;;;;;;;0.61;88.00;101351.33;1756187;82;20995;-69
2022/12/26 05:14:05;;;;;;;8.63;5.08;;;;;;;0.59;88.05;101366.77;1755907;82;21465;-69
2022/12/26 05:30:31;;;;;;;14.65;5.22;;;;;;;0.63;88.22;101371.83;1756209;82;21454;-69
2022/12/26 05:35:48;;;;;;;8.05;5.22;;;;;;;0.64;88.13;101375.38;1756213;82;21023;-67
2022/12/26 05:38:16;;;;;;;11.08;5.22;;;;;;;0.62;87.91;101381.38;1756005;82;22187;-68
2022/12/26 05:40:45;;;;;;;7.40;5.00;;;;;;;0.58;87.91;101375.34;1756150;82;21022;-67
2022/12/26 05:43:15;;;;;;;13.85;5.08;;;;;;;0.61;88.00;101374.25;1756169;82;21050;-68
2022/12/26 05:45:43;;;;;;;7.50;4.83;;;;;;;0.62;87.96;101373.28;1756082;82;21015;-67
2022/12/26 05:48:13;;;;;;;8.85;5.05;;;;;;;0.61;88.00;101372.91;1756019;82;21509;-68
2022/12/26 05:50:42;;;;;;;9.50;5.00;;;;;;;0.64;88.06;101365.94;1755933;81;21468;-67
2022/12/26 05:53:11;;;;;;;10.55;5.58;;;;;;;0.68;87.98;101363.44;1756164;82;21500;-66
2022/12/26 05:55:40;;;;;;;11.33;5.33;;;;;;;0.68;87.81;101365.27;1756097;82;21066;-66
2022/12/26 05:58:09;;;;;;;10.58;5.42;;;;;;;0.69;87.82;101371.04;1755998;81;20990;-67
2022/12/26 06:00:40;;;;;;;9.28;5.17;;;;;;;0.68;87.76;101363.44;1756152;82;21058;-65
2022/12/26 06:03:08;;;;;;;9.50;5.55;;;;;;;0.71;87.80;101363.21;1755590;82;21019;-68
2022/12/26 06:05:37;;;;;;;10.18;6.05;;;;;;;0.73;87.64;101366.66;1755946;82;21455;-68
2022/12/26 06:08:06;;;;;;;9.73;4.97;;;;;;;0.75;87.52;101360.67;1756223;82;21027;-67
2022/12/26 06:10:34;;;;;;;8.53;4.70;;;;;;;0.73;87.41;101365.31;1756133;82;21058;-70
2022/12/26 06:13:04;;;;;;;9.40;5.55;;;;;;;0.71;87.45;101367.26;1755863;82;21470;-69
2022/12/26 06:15:32;;;;;;;8.68;4.95;;;;;;;0.71;87.38;101371.30;1755833;82;21046;-67
2022/12/26 06:18:01;;;;;;;12.70;5.70;;;;;;;0.68;87.30;101362.57;1756108;82;21034;-68
2022/12/26 06:20:31;;;;;;;9.60;5.40;;;;;;;0.69;87.44;101361.11;1756007;82;21056;-67
2022/12/26 06:23:00;;;;;;;10.80;6.67;;;;;;;0.73;87.49;101363.10;1755934;82;21051;-69
2022/12/26 06:25:29;;;;;;;9.83;6.25;;;;;;;0.73;87.50;101365.31;1726920;82;21505;-68
2022/12/26 06:27:58;;;;;;;11.97;6.55;;;;;;;0.76;87.67;101363.74;1755968;82;21011;-66
2022/12/26 06:30:27;;;;;;;13.78;7.22;;;;;;;0.80;87.61;101371.98;1756032;82;21062;-67
2022/12/26 06:32:56;;;;;;;12.15;7.37;;;;;;;0.82;87.40;101365.13;1755963;82;21538;-69
2022/12/26 06:35:25;;;;;;;13.68;8.20;;;;;;;0.84;87.18;101360.48;1755935;81;21493;-69
2022/12/26 06:37:53;;;;;;;12.98;7.10;;;;;;;0.83;86.99;101360.98;1755976;82;21435;-69
2022/12/26 06:40:22;;;;;;;14.20;7.10;;;;;;;0.84;86.83;101358.65;1756130;82;21055;-68
2022/12/26 06:42:51;;;;;;;13.35;7.62;;;;;;;0.83;86.83;101358.27;1755850;82;20979;-68
2022/12/26 06:45:20;;;;;;;13.08;7.47;;;;;;;0.86;86.64;101354.49;1749177;82;21036;-69
2022/12/26 06:47:49;;;;;;;15.80;8.20;;;;;;;0.83;86.57;101354.23;1740293;81;21055;-70
2022/12/26 06:50:21;;;;;;;12.80;7.53;;;;;;;0.84;86.58;101343.81;1740041;82;21083;-70
2022/12/26 06:52:49;;;;;;;10.98;6.67;;;;;;;0.83;86.48;101348.83;1739981;82;21035;-69
2022/12/26 06:55:18;;;;;;;12.55;7.12;;;;;;;0.86;86.35;101355.84;1740129;82;21490;-70
2022/12/26 06:57:51;;;;;;;11.83;6.70;;;;;;;0.88;86.33;101352.55;1740163;82;21059;-72
2022/12/26 07:00:21;;;;;;;16.87;8.45;;;;;;;0.89;86.45;101348.38;1720436;82;21024;-69
2022/12/26 07:02:51;;;;;;;15.78;8.13;;;;;;;0.93;86.49;101343.14;1740434;81;21476;-69
2022/12/26 07:05:20;;;;;;;19.05;10.08;;;;;;;0.94;86.43;101348.05;1740348;82;21089;-69
2022/12/26 07:07:53;;;;;;;27.52;11.85;;;;;;;0.95;86.47;101343.89;1740002;82;21055;-68
2022/12/26 07:10:22;;;;;;;24.72;11.15;;;;;;;0.99;86.42;101341.82;1740289;81;21007;-69
2022/12/26 07:12:51;;;;;;;29.30;13.93;;;;;;;1.00;86.42;101326.01;1740441;82;21011;-68
2022/12/26 07:15:20;;;;;;;26.60;11.65;;;;;;;1.02;86.37;101333.50;1740337;82;21054;-68
2022/12/26 07:17:51;;;;;;;31.17;11.97;;;;;;;1.02;86.27;101332.15;1740121;82;21047;-70
2022/12/26 07:20:20;;;;;;;20.92;10.15;;;;;;;1.05;86.41;101333.77;1740055;81;21043;-71
2022/12/26 07:22:49;;;;;;;22.50;11.18;;;;;;;1.06;86.24;101328.73;1740167;82;21063;-69
2022/12/26 07:25:19;;;;;;;31.85;12.63;;;;;;;1.07;86.16;101330.46;1740015;81;21019;-69
2022/12/26 07:27:47;;;;;;;26.35;14.38;;;;;;;1.06;86.01;101328.73;1740279;82;21035;-69
2022/12/26 07:30:16;;;;;;;36.88;20.43;;;;;;;1.02;86.02;101328.10;1740402;82;21407;-68
2022/12/26 07:32:46;;;;;;;27.87;14.78;;;;;;;1.02;86.02;101319.14;1740327;82;21079;-70
2022/12/26 07:35:15;;;;;;;27.25;14.20;;;;;;;1.02;86.05;101333.98;1740036;81;21481;-70
2022/12/26 07:37:43;;;;;;;26.95;14.38;;;;;;;1.03;86.08;101333.88;1740187;82;21016;-70
2022/12/26 07:40:13;;;;;;;30.10;14.73;;;;;;;1.04;86.23;101333.39;1740232;82;20992;-68
2022/12/26 07:42:42;;;;;;;28.05;14.63;;;;;;;1.01;86.34;101331.78;1740055;82;21484;-69
2022/12/26 07:45:12;;;;;;;35.20;16.57;;;;;;;0.99;86.35;101331.52;1743542;81;21035;-68
2022/12/26 07:47:41;;;;;;;37.67;16.00;;;;;;;0.95;86.55;101330.40;1756221;82;21439;-70
2022/12/26 07:50:10;;;;;;;29.27;15.13;;;;;;;0.92;86.80;101327.92;1756230;82;21034;-69
2022/12/26 07:52:38;;;;;;;26.93;14.38;;;;;;;0.92;87.02;101327.06;1756040;82;21506;-69
2022/12/26 07:55:10;;;;;;;33.30;15.63;;;;;;;0.89;87.20;101328.15;1756266;81;21037;-64
2022/12/26 07:57:40;;;;;;;33.90;16.35;;;;;;;0.90;87.45;101336.62;1756063;81;21478;-69
2022/12/26 08:00:11;;;;;;;30.50;14.95;;;;;;;0.86;87.45;101332.42;1756018;82;21511;-68
2022/12/26 08:02:41;;;;;;;33.35;14.95;;;;;;;0.87;87.59;101338.68;1756022;82;21086;-69
2022/12/26 08:05:10;;;;;;;31.90;13.48;;;;;;;0.90;87.71;101331.71;1755980;82;21038;-70
2022/12/26 08:07:39;;;;;;;31.70;13.62;;;;;;;0.90;87.70;101331.22;1756073;82;20994;-69
2022/12/26 08:10:09;;;;;;;24.63;13.25;;;;;;;0.88;87.76;101333.17;1755968;82;21030;-68
2022/12/26 08:12:38;;;;;;;32.20;14.47;;;;;;;0.88;87.92;101333.66;1755844;81;21011;-68
2022/12/26 08:15:09;;;;;;;26.85;12.95;;;;;;;0.90;87.97;101329.88;1755945;81;20995;-69
2022/12/26 08:17:38;;;;;;;28.30;13.25;;;;;;;0.91;87.91;101330.25;1755985;82;21011;-68
2022/12/26 08:20:07;;;;;;;32.63;14.45;;;;;;;0.90;87.88;101334.41;1756179;82;21098;-68
2022/12/26 08:22:36;;;;;;;30.95;13.30;;;;;;;0.89;87.97;101336.24;1755952;82;21003;-69
2022/12/26 08:25:06;;;;;;;26.60;12.98;;;;;;;0.90;88.06;101335.27;1755928;81;21018;-68
2022/12/26 08:27:35;;;;;;;31.48;14.87;;;;;;;0.93;88.12;101334.19;1755974;82;21019;-69
2022/12/26 08:30:04;;;;;;;24.92;13.05;;;;;;;0.97;88.19;101341.56;1756171;82;21062;-70
2022/12/26 08:32:33;;;;;;;25.97;13.80;;;;;;;0.99;88.01;101341.82;1756169;82;21003;-70
2022/12/26 08:35:06;;;;;;;29.95;13.75;;;;;;;0.97;87.86;101341.56;1755914;82;21495;-67
2022/12/26 08:37:35;;;;;;;26.57;13.05;;;;;;;0.92;87.80;101344.11;1755983;82;21102;-71
2022/12/26 08:40:05;;;;;;;26.37;12.45;;;;;;;0.92;87.92;101341.41;1756070;82;21014;-69
2022/12/26 08:42:34;;;;;;;31.55;12.58;;;;;;;0.96;87.91;101342.05;1756280;81;21058;-69
2022/12/26 08:45:06;;;;;;;25.15;13.22;;;;;;;0.97;87.77;101338.86;1754585;82;21482;-68
2022/12/26 08:47:35;;;;;;;27.58;13.58;;;;;;;0.95;87.83;101331.74;1745771;82;20988;-70
2022/12/26 08:50:05;;;;;;;24.25;12.28;;;;;;;0.95;87.87;101329.53;1745662;81;21500;-70
2022/12/26 08:52:34;;;;;;;26.02;12.50;;;;;;;0.96;87.90;101329.91;1745903;82;21020;-71
2022/12/26 08:55:04;;;;;;;24.92;12.80;;;;;;;0.99;87.99;101326.13;1745463;82;21039;-69
2022/12/26 08:57:34;;;;;;;23.27;12.23;;;;;;;1.02;87.94;101328.10;1745457;82;21040;-70
2022/12/26 09:00:04;;;;;;;29.35;13.22;;;;;;;1.05;87.75;101325.66;1745652;82;21070;-67
2022/12/26 09:02:33;;;;;;;26.65;13.50;;;;;;;1.04;87.66;101324.80;1745429;81;21078;-69
2022/12/26 09:05:02;;;;;;;24.30;11.93;;;;;;;1.05;87.66;101327.88;1745885;82;21058;-69
2022/12/26 09:07:31;;;;;;;28.92;13.80;;;;;;;1.05;87.57;101326.53;1745849;82;21050;-66
2022/12/26 09:10:00;;;;;;;23.50;11.78;;;;;;;1.06;87.53;101317.45;1745545;82;21091;-68
2022/12/26 09:12:29;;;;;;;30.97;14.07;;;;;;;1.08;87.24;101318.69;1745801;82;21435;-69
2022/12/26 09:14:58;;;;;;;31.07;14.18;;;;;;;1.06;87.01;101326.04;1745465;81;21390;-66
2022/12/26 09:17:27;;;;;;;26.73;13.25;;;;;;;1.03;86.93;101321.73;1750780;82;21460;-67
2022/12/26 09:19:57;;;;;;;23.73;11.78;;;;;;;1.01;86.75;101316.08;1726921;82;21103;-66
2022/12/26 09:22:50;;;;;;;34.67;13.40;;;;;;;1.02;87.26;101313.75;1753982;82;22154;-65
2022/12/26 09:25:21;;;;;;;32.60;13.13;;;;;;;1.01;87.12;101303.93;1753787;82;21468;-66
2022/12/26 09:27:55;;;;;;;24.00;11.85;;;;;;;1.07;87.34;101298.08;1753908;82;21024;-66
2022/12/26 09:30:25;;;;;;;35.85;12.58;;;;;;;1.13;87.31;101297.13;1753373;82;21087;-67
2022/12/26 09:32:54;;;;;;;23.32;11.18;;;;;;;1.17;87.21;101291.02;1754027;82;21538;-67
2022/12/26 09:35:23;;;;;;;36.30;14.00;;;;;;;1.18;87.05;101285.50;1754187;82;21091;-65
2022/12/26 09:37:51;;;;;;;39.53;15.15;;;;;;;1.20;86.91;101283.55;1754081;82;21460;-66
2022/12/26 09:40:24;;;;;;;29.05;13.00;;;;;;;1.20;86.63;101282.68;1753955;82;21424;-66
2022/12/26 09:43:16;;;;;;;25.15;11.45;;;;;;;1.20;86.60;101280.84;1753877;82;21059;-66
2022/12/26 09:46:09;;;;;;;34.35;14.40;;;;;;;1.18;86.15;101277.40;1754743;81;21433;-68
2022/12/26 09:48:42;;;;;;;27.82;12.23;;;;;;;1.18;86.37;101269.30;1753831;81;21028;-66
2022/12/26 09:51:11;;;;;;;23.73;11.38;;;;;;;1.21;86.20;101272.25;1767036;81;21429;-66
2022/12/26 09:53:42;;;;;;;37.28;13.62;;;;;;;1.21;86.02;101273.61;1751560;82;21013;-67
2022/12/26 09:56:16;;;;;;;29.12;12.40;;;;;;;1.20;85.84;101277.28;1731180;83;21062;-64
2022/12/26 09:58:52;;;;;;;39.85;15.15;;;;;;;1.18;85.74;101277.89;1698350;84;21097;-63
2022/12/26 10:01:30;;;;;;;47.33;15.95;;;;;;;1.19;85.92;101279.61;1700298;84;21074;-67
2022/12/26 10:04:00;;;;;;;29.63;12.85;;;;;;;1.20;85.96;101275.94;1726915;82;21406;-69
2022/12/26 10:06:35;;;;;;;26.20;11.22;;;;;;;1.22;85.99;101275.33;1751394;82;21001;-68
2022/12/26 10:09:33;;;;;;;26.45;12.60;;;;;;;1.24;86.14;101282.82;1726415;82;21011;-68
2022/12/26 10:12:21;;;;;;;22.42;11.43;;;;;;;1.26;85.89;101280.38;1751444;82;21025;-66
2022/12/26 10:14:58;;;;;;;24.52;11.75;;;;;;;1.25;85.65;101283.19;1720785;82;21053;-67
2022/12/26 10:17:47;;;;;;;21.90;11.08;;;;;;;1.24;85.71;101282.34;1751356;82;21057;-68
2022/12/26 10:20:38;;;;;;;21.77;10.20;;;;;;;1.25;85.74;101284.05;1751462;82;21018;-64
2022/12/26 10:23:32;;;;;;;23.95;10.78;;;;;;;1.23;85.60;101277.91;1751472;82;21065;-67
2022/12/26 10:26:12;;;;;;;19.77;10.20;;;;;;;1.22;85.46;101279.38;1751356;82;21029;-68
2022/12/26 10:29:14;;;;;;;21.65;11.25;;;;;;;1.15;85.28;101274.94;1751368;81;21045;-67
2022/12/26 10:32:06;;;;;;;26.87;11.97;;;;;;;1.12;85.58;101266.20;1751419;82;21033;-68
2022/12/26 10:34:41;;;;;;;27.13;10.75;;;;;;;1.15;85.71;101262.78;1679974;83;21522;-67
2022/12/26 10:37:31;;;;;;;19.98;10.38;;;;;;;1.17;85.69;101246.48;1696693;83;21082;-65
2022/12/26 10:40:20;;;;;;;22.25;10.65;;;;;;;1.21;85.79;101238.52;1720442;83;21070;-66
2022/12/26 10:42:59;;;;;;;23.32;10.72;;;;;;;1.20;85.65;101237.66;1696409;84;21081;-66
2022/12/26 10:45:46;;;;;;;27.90;14.07;;;;;;;1.23;85.70;101237.42;1733387;83;21062;-65
2022/12/26 10:48:24;;;;;;;35.13;13.78;;;;;;;1.28;85.76;101239.77;1695484;83;21066;-65
2022/12/26 10:51:50;;;;;;;26.27;11.45;;;;;;;1.28;85.64;101235.23;1678423;83;21049;-63
2022/12/26 10:54:47;;;;;;;24.25;11.83;;;;;;;1.33;85.50;101245.70;1690029;83;21071;-64
2022/12/26 10:57:17;;;;;;;25.92;12.43;;;;;;;1.37;85.44;101233.69;1656562;86;21187;-66
2022/12/26 10:59:49;;;;;;;25.27;11.78;;;;;;;1.37;85.21;101229.64;1633544;86;21048;-63
2022/12/26 11:02:32;;;;;;;25.90;11.48;;;;;;;1.36;85.20;101227.92;1633644;86;21079;-64
2022/12/26 11:05:11;;;;;;;22.60;10.65;;;;;;;1.39;85.03;101222.28;1656759;86;21091;-65
2022/12/26 11:07:53;;;;;;;24.87;9.43;;;;;;;1.42;84.90;101227.45;1656438;86;21125;-66
2022/12/26 11:10:27;;;;;;;21.52;10.58;;;;;;;1.43;84.22;101228.31;1656653;86;21045;-66
2022/12/26 11:13:01;;;;;;;25.70;12.50;;;;;;;1.36;84.13;101225.22;1689646;85;21105;-62
2022/12/26 11:15:50;;;;;;;22.50;10.38;;;;;;;1.37;84.34;101223.38;1689841;85;21039;-66
2022/12/26 11:18:47;;;;;;;26.45;12.55;;;;;;;1.35;83.87;101214.05;1689917;85;21046;-65
2022/12/26 11:21:24;;;;;;;24.95;12.00;;;;;;;1.35;84.05;101222.15;1689521;85;21047;-65
2022/12/26 11:24:10;;;;;;;25.55;12.53;;;;;;;1.35;83.95;101216.75;1689826;85;21479;-64
2022/12/26 11:26:38;;;;;;;22.27;10.93;;;;;;;1.34;84.01;101214.17;1688595;85;21415;-65
2022/12/26 11:29:20;;;;;;;24.90;12.70;;;;;;;1.32;84.02;101205.33;1683443;83;21118;-65
2022/12/26 11:31:59;;;;;;;24.67;11.93;;;;;;;1.31;84.15;101204.47;1655425;87;21466;-66
2022/12/26 11:34:44;;;;;;;24.75;11.38;;;;;;;1.32;84.27;101203.48;1629279;87;21467;-64
2022/12/26 11:37:28;;;;;;;28.87;12.45;;;;;;;1.32;84.24;101202.14;1607031;88;21055;-64
2022/12/26 11:39:57;;;;;;;21.05;10.70;;;;;;;1.31;84.08;101196.37;1610734;89;21480;-64
2022/12/26 11:42:26;;;;;;;20.05;9.83;;;;;;;1.29;84.23;101200.99;1595038;88;21481;-64
2022/12/26 11:44:56;;;;;;;22.82;10.80;;;;;;;1.27;84.05;101195.72;1619699;88;21061;-62
2022/12/26 11:47:28;;;;;;;20.97;9.65;;;;;;;1.24;84.10;101196.44;1626211;88;21062;-66
2022/12/26 11:50:09;;;;;;;45.12;12.58;;;;;;;1.25;84.29;101199.51;1629561;88;21010;-65
2022/12/26 11:52:47;;;;;;;26.20;11.50;;;;;;;1.25;84.27;101197.67;1629559;88;21055;-65
2022/12/26 11:55:27;;;;;;;25.20;10.68;;;;;;;1.25;84.40;101201.72;1632391;87;21114;-64
2022/12/26 11:58:21;;;;;;;23.50;10.60;;;;;;;1.23;84.45;101197.42;1662372;85;21204;-66
2022/12/26 12:01:04;;;;;;;20.60;10.15;;;;;;;1.20;84.46;101185.51;1637242;86;21100;-66
2022/12/26 12:03:40;;;;;;;23.83;10.18;;;;;;;1.21;84.69;101197.54;1664027;85;21121;-64
2022/12/26 12:06:55;;;;;;;20.82;10.70;;;;;;;1.24;84.78;101205.89;1666811;85;21023;-66
2022/12/26 12:09:52;;;;;;;25.05;10.63;;;;;;;1.25;84.83;101203.56;1667646;86;21103;-65
2022/12/26 12:13:03;;;;;;;20.50;9.80;;;;;;;1.25;85.37;101200.86;1668206;86;21468;-67
2022/12/26 12:15:49;;;;;;;28.27;12.85;;;;;;;1.28;85.30;101208.72;1667866;86;21069;-63
2022/12/26 12:18:49;;;;;;;19.07;9.68;;;;;;;1.30;85.29;101207.25;1667878;85;21052;-65
2022/12/26 12:21:45;;;;;;;23.20;10.43;;;;;;;1.29;85.18;101191.55;1667682;85;21091;-66
2022/12/26 12:24:43;;;;;;;23.52;10.13;;;;;;;1.34;85.52;101205.58;1667741;86;21066;-64
2022/12/26 12:27:31;;;;;;;21.67;10.47;;;;;;;1.34;85.36;101208.77;1668003;86;21582;-66
2022/12/26 12:30:12;;;;;;;23.85;10.03;;;;;;;1.27;85.20;101210.56;1667724;86;21884;-66
2022/12/26 12:33:09;;;;;;;17.25;9.23;;;;;;;1.28;85.35;101208.72;1667723;85;22033;-66
2022/12/26 12:36:00;;;;;;;22.27;9.65;;;;;;;1.31;85.46;101207.17;1667657;84;21048;-65
2022/12/26 12:39:07;;;;;;;19.67;10.18;;;;;;;1.31;85.32;101201.77;1664959;86;21512;-64
2022/12/26 12:41:47;;;;;;;20.27;9.30;;;;;;;1.29;85.31;101194.24;1667733;86;21088;-64
2022/12/26 12:44:39;;;;;;;19.90;9.58;;;;;;;1.27;85.42;101185.41;1667754;85;21032;-63
2022/12/26 12:47:19;;;;;;;18.75;9.85;;;;;;;1.27;85.48;101191.66;1639020;86;21057;-64
2022/12/26 12:50:03;;;;;;;17.32;9.90;;;;;;;1.32;85.65;101189.99;1633494;87;21079;-65
2022/12/26 12:52:56;;;;;;;20.45;9.68;;;;;;;1.34;85.59;101181.28;1628308;88;21098;-64
2022/12/26 12:56:10;;;;;;;19.30;10.48;;;;;;;1.31;85.42;101185.58;1638352;87;21040;-66
2022/12/26 12:59:02;;;;;;;25.02;10.18;;;;;;;1.25;85.46;101182.83;1695541;84;21025;-64
2022/12/26 13:01:43;;;;;;;21.37;9.68;;;;;;;1.22;85.55;101179.50;1689529;85;21091;-63
2022/12/26 13:04:29;;;;;;;23.40;10.05;;;;;;;1.20;85.42;101184.16;1681103;85;20993;-65
2022/12/26 13:07:05;;;;;;;21.35;9.88;;;;;;;1.16;85.56;101173.23;1660617;85;21068;-65
2022/12/26 13:09:39;;;;;;;22.60;11.15;;;;;;;1.16;85.77;101173.23;1660465;86;21076;-64
2022/12/26 13:12:13;;;;;;;26.05;11.25;;;;;;;1.16;85.78;101156.55;1660262;86;21508;-65
2022/12/26 13:14:52;;;;;;;23.62;10.65;;;;;;;1.14;85.86;101154.95;1660333;86;21076;-64
2022/12/26 13:17:41;;;;;;;26.52;12.50;;;;;;;1.16;85.91;101161.08;1658129;86;21121;-65
2022/12/26 13:20:42;;;;;;;27.35;12.45;;;;;;;1.17;85.91;101158.75;1643425;86;21057;-64
2022/12/26 13:26:30;;;;;;;26.17;11.50;;;;;;;1.15;86.15;101151.27;1660465;85;21057;-67
2022/12/26 13:29:10;;;;;;;23.77;11.73;;;;;;;1.17;86.15;101145.26;1660295;85;21590;-66
2022/12/26 13:31:40;;;;;;;26.20;11.43;;;;;;;1.18;86.14;101138.87;1661123;86;21027;-66
2022/12/26 13:34:15;;;;;;;25.23;12.10;;;;;;;1.19;86.06;101132.50;1629415;88;21461;-66
2022/12/26 13:36:51;;;;;;;22.20;11.50;;;;;;;1.20;85.96;101133.73;1644863;86;21511;-66
2022/12/26 13:39:29;;;;;;;25.88;12.45;;;;;;;1.16;85.74;101127.34;1629202;88;21040;-66
2022/12/26 13:45:43;;;;;;;24.18;10.88;;;;;;;1.16;85.79;101120.59;1621739;88;21055;-65
2022/12/26 13:48:31;;;;;;;23.95;11.03;;;;;;;1.16;85.72;101120.59;1619843;88;21098;-67
2022/12/26 13:51:04;;;;;;;21.90;11.63;;;;;;;1.14;85.86;101112.63;1619887;88;21479;-68
2022/12/26 13:53:41;;;;;;;27.22;12.23;;;;;;;1.15;86.20;101123.78;1619831;88;21103;-67
2022/12/26 13:56:22;;;;;;;23.73;11.93;;;;;;;1.19;86.27;101135.20;1621777;88;21041;-68
2022/12/26 13:59:17;;;;;;;26.95;11.20;;;;;;;1.17;85.90;101123.67;1627819;88;21132;-69
2022/12/26 14:02:10;;;;;;;24.27;11.20;;;;;;;1.13;86.10;101123.05;1651054;87;21509;-68
2022/12/26 14:05:14;;;;;;;20.80;10.45;;;;;;;1.13;86.19;101113.60;1624288;87;21217;-68
2022/12/26 14:07:53;;;;;;;22.80;10.90;;;;;;;1.13;85.98;101119.00;1651181;87;21045;-67
2022/12/26 14:10:39;;;;;;;22.00;10.05;;;;;;;1.07;85.95;101109.17;1651014;85;21590;-67
2022/12/26 14:13:44;;;;;;;23.07;10.95;;;;;;;1.05;86.04;101111.13;1650714;87;21100;-67
2022/12/26 14:16:31;;;;;;;22.62;11.63;;;;;;;1.02;85.91;101110.88;1651123;85;21469;-69